Latest Weather Observations for Gold Coast Seaway

IDQ60801

Issued at 3:22 pm EST Monday 30 March 2020 (issued every 10 minutes, with the page automatically refreshed every 10 minutes)

About weather observations | Map of weather stations | Latest weather observations for QLD | Other Formats
Station Details ID: 040764 Name: GOLD COAST SEAWAY Lat: -27.94 Lon: 153.43 Height: 2.98 m
Data from the previous 72 hours. | See also: Recent months at Gold Coast Seaway
Date/Time
EST
Temp
°C
App
Temp
°C
Dew
Point
°C
Rel
Hum
%
Delta-T
°C
Wind Press
QNH
hPa
Press
MSL
hPa
Rain since
9am
mm
Dir  Spd
km/h
Gust
km/h
Spd
kts
Gust
kts
30/03:00pm 27.1 25.6 19.4 62 5.0 NNE 26 32 14 17 1014.1 1014.1 0.0
30/02:30pm 27.1 26.1 19.7 64 4.8 NE 24 28 13 15 1014.2 1014.2 0.0
30/02:00pm 27.2 26.3 19.8 64 4.8 NE 24 30 13 16 1014.2 1014.2 0.0
30/01:30pm 26.4 25.9 20.0 68 4.2 NE 22 26 12 14 1014.5 1014.5 0.0
30/01:00pm 26.6 26.3 19.2 64 4.8 NE 19 22 10 12 1015.0 1015.0 0.0
30/12:30pm 26.5 26.7 19.4 65 4.6 NE 17 20 9 11 1015.3 1015.3 0.0
30/12:00pm 27.0 27.8 19.9 65 4.6 ENE 15 17 8 9 1015.8 1015.8 0.0
30/11:30am 26.6 27.1 19.2 64 4.8 NE 15 17 8 9 1016.4 1016.4 0.0
30/11:00am 26.5 27.5 19.4 65 4.6 NE 13 15 7 8 1016.7 1016.7 0.0
30/10:30am 26.0 27.1 18.9 65 4.5 ENE 11 13 6 7 1017.0 1017.0 0.0
30/10:00am 25.9 27.0 18.8 65 4.5 ENE 11 15 6 8 1016.9 1016.9 0.0
30/09:30am 25.6 27.6 18.8 66 4.3 ENE 6 9 3 5 1017.1 1017.1 0.0
30/09:00am 25.2 27.1 18.9 68 4.0 ESE 7 9 4 5 1017.1 1017.1 0.0
30/08:30am 24.5 27.8 19.1 72 3.4 CALM 0 0 0 0 1017.1 1017.1 0.0
30/08:00am 22.6 25.0 17.9 75 2.9 W 2 7 1 4 1017.2 1017.2 0.0
30/07:30am 21.4 22.5 18.0 81 2.1 WSW 9 9 5 5 1017.0 1017.0 0.0
30/07:00am 20.2 21.1 17.6 85 1.6 SW 9 13 5 7 1016.6 1016.6 0.0
30/06:30am 19.6 20.4 17.2 86 1.5 WSW 9 13 5 7 1016.3 1016.3 0.0
30/06:00am 19.4 19.4 17.2 87 1.3 SW 13 15 7 8 1016.1 1016.1 0.0
30/05:30am 19.4 19.8 17.2 87 1.3 SW 11 15 6 8 1016.0 1016.0 0.0
30/05:00am 19.6 20.1 17.4 87 1.3 SW 11 13 6 7 1015.9 1015.9 0.0
30/04:30am 19.6 20.1 17.4 87 1.3 SW 11 13 6 7 1015.8 1015.8 0.0
30/04:00am 19.6 20.4 17.4 87 1.3 WSW 9 11 5 6 1016.0 1016.0 0.0
30/03:30am 19.9 20.9 17.7 87 1.4 WSW 9 11 5 6 1016.1 1016.1 0.0
30/03:00am 20.0 21.0 17.8 87 1.4 WSW 9 11 5 6 1016.3 1016.3 0.0
30/02:30am 19.9 21.2 17.5 86 1.5 SW 7 9 4 5 1016.4 1016.4 0.0
30/02:00am 20.2 21.1 17.6 85 1.6 SW 9 11 5 6 1016.9 1016.9 0.0
30/01:30am 20.5 21.6 18.1 86 1.5 SW 9 13 5 7 1017.2 1017.2 0.0
30/01:00am 20.5 21.6 18.1 86 1.5 WSW 9 11 5 6 1017.4 1017.4 0.0
30/12:30am 20.9 22.2 18.5 86 1.5 WSW 9 11 5 6 1017.6 1017.6 0.0
30/12:00am 21.0 22.3 18.4 85 1.6 WSW 9 11 5 6 1017.7 1017.7 0.0
 
Date/Time
EST
Temp
°C
App
Temp
°C
Dew
Point
°C
Rel
Hum
%
Delta-T
°C
Wind Press
QNH
hPa
Press
MSL
hPa
Rain since
9am
mm
Dir  Spd
km/h
Gust
km/h
Spd
kts
Gust
kts
29/11:30pm 21.2 22.9 18.4 84 1.7 SW 7 11 4 6 1017.9 1017.9 0.0
29/11:00pm 20.9 21.6 17.9 83 1.9 SSW 11 13 6 7 1018.1 1018.1 0.0
29/10:30pm 21.2 22.3 18.0 82 2.0 SSW 9 11 5 6 1018.2 1018.2 0.0
29/10:00pm 21.5 22.6 18.1 81 2.1 S 9 11 5 6 1018.5 1018.5 0.0
29/09:30pm 22.2 23.7 19.0 82 2.0 SW 9 11 5 6 1018.7 1018.7 0.0
29/09:00pm 22.6 24.1 18.8 79 2.4 E 9 13 5 7 1018.7 1018.7 0.0
29/08:30pm 22.4 21.9 19.2 82 2.0 SE 20 28 11 15 1018.6 1018.6 0.0
29/08:00pm 23.7 23.5 18.6 73 3.2 ESE 17 19 9 10 1018.3 1018.3 0.0
29/07:30pm 24.0 23.8 18.6 72 3.4 ESE 17 19 9 10 1018.1 1018.1 0.0
29/07:00pm 23.9 23.7 18.5 72 3.4 ESE 17 19 9 10 1018.1 1018.1 0.0
29/06:30pm 23.8 23.4 18.9 74 3.1 ESE 19 26 10 14 1017.5 1017.5 0.0
29/06:00pm 23.9 23.3 18.8 73 3.2 ESE 20 26 11 14 1017.4 1017.4 0.0
29/05:30pm 24.1 23.5 18.5 71 3.5 ESE 19 24 10 13 1017.2 1017.2 0.0
29/05:00pm 24.3 23.7 18.9 72 3.4 ESE 20 24 11 13 1016.9 1016.9 0.0
29/04:30pm 24.8 24.0 18.0 66 4.3 ESE 19 22 10 12 1016.7 1016.7 0.0
29/04:00pm 25.0 24.6 18.9 69 3.9 SE 19 22 10 12 1016.7 1016.7 0.0
29/03:30pm 25.6 25.4 19.7 70 3.8 SE 20 24 11 13 1016.7 1016.7 0.0
29/03:00pm 25.4 25.3 19.5 70 3.8 ESE 19 24 10 13 1016.8 1016.8 0.0
29/02:30pm 25.1 24.9 18.5 67 4.2 E 17 20 9 11 1016.8 1016.8 0.0
29/02:00pm 25.8 25.4 19.0 66 4.3 ESE 19 22 10 12 1017.0 1017.0 0.0
29/01:30pm 26.3 25.5 19.2 65 4.6 ESE 22 26 12 14 1017.1 1017.1 0.0
29/01:00pm 26.5 25.7 18.1 60 5.3 ESE 19 20 10 11 1017.3 1017.3 0.0
29/12:30pm 26.4 26.1 18.3 61 5.1 SE 17 19 9 10 1017.5 1017.5 0.0
29/12:00pm 26.6 26.6 19.7 66 4.5 SE 19 20 10 11 1018.0 1018.0 0.0
29/11:30am 27.3 27.4 19.9 64 4.8 SSE 19 24 10 13 1018.5 1018.5 0.0
29/11:00am 26.9 26.9 19.8 65 4.6 SSE 19 24 10 13 1018.8 1018.8 0.0
29/10:30am 26.1 24.9 18.5 63 4.8 SSE 22 28 12 15 1019.0 1019.0 0.0
29/10:00am 25.6 23.7 18.5 65 4.5 SSE 26 30 14 16 1019.2 1019.2 0.0
29/09:30am 25.5 23.7 19.6 70 3.8 SSE 28 35 15 19 1019.4 1019.4 0.0
29/09:00am 25.2 23.6 19.3 70 3.8 SSE 26 32 14 17 1019.6 1019.6 4.2
29/08:30am 23.7 24.8 18.8 74 3.1 SSE 11 19 6 10 1019.6 1019.6 4.2
29/08:00am 22.2 23.3 18.0 77 2.6 SSW 9 15 5 8 1019.4 1019.4 4.2
29/07:30am 20.7 21.8 17.9 84 1.7 SSW 9 13 5 7 1019.1 1019.1 4.2
29/07:00am 19.9 19.8 16.9 83 1.8 S 13 17 7 9 1018.6 1018.6 4.2
29/06:30am 20.2 20.3 17.4 84 1.7 SSW 13 17 7 9 1018.5 1018.5 4.2
29/06:00am 19.9 19.9 17.1 84 1.7 SSW 13 19 7 10 1018.2 1018.2 4.2
29/05:30am 19.8 19.9 17.4 86 1.5 SSW 13 19 7 10 1017.7 1017.7 4.2
29/05:00am 19.9 20.4 17.5 86 1.5 SW 11 17 6 9 1017.3 1017.3 4.2
29/04:30am 20.2 20.5 17.8 86 1.5 SSW 13 17 7 9 1017.3 1017.3 4.2
29/04:00am 20.2 20.1 17.8 86 1.5 SSW 15 17 8 9 1017.4 1017.4 4.2
29/03:30am 20.5 20.5 18.1 86 1.5 SSW 15 19 8 10 1017.5 1017.5 4.2
29/03:00am 20.5 20.5 18.1 86 1.5 S 15 20 8 11 1017.5 1017.5 4.0
29/02:30am 20.5 20.9 18.1 86 1.5 SSW 13 19 7 10 1017.5 1017.5 4.0
29/02:00am 20.7 21.6 18.5 87 1.4 SSW 11 15 6 8 1017.8 1017.8 4.0
29/01:30am 20.9 22.2 18.5 86 1.5 SW 9 11 5 6 1018.0 1018.0 4.0
29/01:00am 21.2 22.1 18.4 84 1.7 SSW 11 13 6 7 1018.3 1018.3 4.0
29/12:30am 21.9 23.7 18.7 82 2.0 S 7 13 4 7 1018.7 1018.7 4.0
29/12:00am 22.4 23.3 18.4 78 2.5 ENE 11 13 6 7 1018.6 1018.6 4.0
 
Date/Time
EST
Temp
°C
App
Temp
°C
Dew
Point
°C
Rel
Hum
%
Delta-T
°C
Wind Press
QNH
hPa
Press
MSL
hPa
Rain since
9am
mm
Dir  Spd
km/h
Gust
km/h
Spd
kts
Gust
kts
28/11:30pm 22.6 22.8 18.6 78 2.5 E 15 19 8 10 1018.9 1018.9 4.0
28/11:00pm 22.7 22.3 18.0 75 2.9 E 17 26 9 14 1019.0 1019.0 4.0
28/10:30pm 22.9 21.9 18.9 78 2.5 E 22 26 12 14 1019.2 1019.2 4.0
28/10:00pm 23.1 21.4 19.7 81 2.2 ENE 28 33 15 18 1019.4 1019.4 4.0
28/09:30pm 22.6 19.7 19.2 81 2.2 E 33 39 18 21 1019.7 1019.7 4.0
28/09:00pm 22.8 20.9 20.1 85 1.7 ESE 30 35 16 19 1019.4 1019.4 4.0
28/08:30pm 21.9 20.3 19.3 85 1.7 SE 26 30 14 16 1019.4 1019.4 4.0
28/08:00pm 22.6 21.8 20.1 86 1.6 SSE 24 37 13 20 1019.1 1019.1 3.0
28/07:55pm 22.4 20.5 19.4 83 1.9 S 28 37 15 20 1019.1 1019.1 2.0
28/07:30pm 23.1 23.3 18.6 76 2.8 SSE 15 19 8 10 1018.9 1018.9 0.4
28/07:00pm 23.2 23.1 18.7 76 2.8 SE 17 19 9 10 1018.9 1018.9 0.4
28/06:30pm 23.3 22.9 19.0 77 2.7 SE 19 24 10 13 1018.7 1018.7 0.4
28/06:00pm 22.8 23.0 17.7 73 3.2 SSE 13 15 7 8 1018.4 1018.4 0.4
28/05:30pm 23.5 23.6 18.4 73 3.2 ESE 15 17 8 9 1018.2 1018.2 0.4
28/05:00pm 23.3 22.2 17.7 71 3.5 ESE 20 24 11 13 1018.0 1018.0 0.4
28/04:30pm 24.0 21.3 18.4 71 3.5 E 30 33 16 18 1017.8 1017.8 0.4
28/04:00pm 25.9 24.1 19.5 68 4.1 SE 28 32 15 17 1017.6 1017.6 0.4
28/03:30pm 26.0 24.6 18.9 65 4.5 SE 24 28 13 15 1017.7 1017.7 0.4
28/03:00pm 26.0 25.2 17.9 61 5.1 SE 19 22 10 12 1017.6 1017.6 0.4
28/02:30pm 26.4 24.6 18.8 63 4.9 SE 26 32 14 17 1017.7 1017.7 0.4
28/02:00pm 26.3 24.1 18.7 63 4.8 SE 28 32 15 17 1017.9 1017.9 0.4
28/01:30pm 27.3 25.3 19.1 61 5.3 SE 28 33 15 18 1018.1 1018.1 0.4
28/01:00pm 27.3 25.7 19.1 61 5.3 SE 26 33 14 18 1018.5 1018.5 0.4
28/12:30pm 27.2 25.0 18.8 60 5.4 SE 28 32 15 17 1018.8 1018.8 0.4
28/12:00pm 27.0 24.8 18.6 60 5.4 SSE 28 32 15 17 1019.2 1019.2 0.4
28/11:30am 26.8 25.2 18.4 60 5.3 SSE 24 30 13 16 1019.7 1019.7 0.4
28/11:00am 26.8 26.3 19.2 63 4.9 SSE 20 26 11 14 1020.0 1020.0 0.4
28/10:30am 25.7 25.2 18.6 65 4.5 S 19 24 10 13 1020.2 1020.2 0.2
28/10:00am 23.3 21.0 18.4 74 3.1 S 28 37 15 20 1020.3 1020.3 0.2
28/09:30am 22.9 19.2 17.4 71 3.4 SSE 33 41 18 22 1020.6 1020.6 0.2
28/09:00am 25.8 23.4 18.2 63 4.8 SSE 28 35 15 19 1020.4 1020.4 0.6
28/08:30am 24.7 21.9 17.2 63 4.7 S 28 35 15 19 1020.2 1020.2 0.6
28/08:00am 24.4 22.6 16.9 63 4.6 S 22 30 12 16 1019.9 1019.9 0.6
28/07:30am 22.8 20.0 16.4 67 3.9 S 26 33 14 18 1019.8 1019.8 0.6
28/07:00am 21.7 18.5 16.2 71 3.3 S 28 33 15 18 1019.5 1019.5 0.6
28/06:30am 20.7 19.4 15.7 73 3.0 S 17 26 9 14 1019.3 1019.3 0.6
28/06:00am 20.2 18.2 15.4 74 2.8 S 20 30 11 16 1019.1 1019.1 0.6
28/05:30am 20.4 17.3 15.6 74 2.9 S 26 39 14 21 1018.9 1018.9 0.6
28/05:00am 20.3 18.3 15.5 74 2.8 S 20 28 11 15 1018.8 1018.8 0.6
28/04:30am 20.4 18.1 15.6 74 2.9 S 22 32 12 17 1018.7 1018.7 0.6
28/04:00am 20.3 17.6 15.5 74 2.8 S 24 30 13 16 1018.5 1018.5 0.6
28/03:30am 20.5 17.8 15.7 74 2.9 S 24 32 13 17 1018.5 1018.5 0.6
28/03:00am 20.4 17.8 15.8 75 2.7 S 24 33 13 18 1018.3 1018.3 0.6
28/02:30am 20.5 17.2 16.1 76 2.6 S 28 37 15 20 1018.6 1018.6 0.6
28/02:00am 20.4 17.8 16.0 76 2.6 S 24 35 13 19 1019.0 1019.0 0.6
28/01:30am 20.3 17.4 16.1 77 2.5 S 26 33 14 18 1019.8 1019.8 0.6
28/01:00am 20.4 17.1 16.0 76 2.6 S 28 39 15 21 1019.9 1019.9 0.6
28/12:30am 20.3 17.3 15.9 76 2.6 S 26 33 14 18 1020.0 1020.0 0.6
28/12:00am 20.2 17.5 15.6 75 2.7 S 24 33 13 18 1020.3 1020.3 0.6
 
Date/Time
EST
Temp
°C
App
Temp
°C
Dew
Point
°C
Rel
Hum
%
Delta-T
°C
Wind Press
QNH
hPa
Press
MSL
hPa
Rain since
9am
mm
Dir  Spd
km/h
Gust
km/h
Spd
kts
Gust
kts
27/11:30pm 20.3 17.2 15.5 74 2.8 S 26 35 14 19 1020.5 1020.5 0.6
27/11:00pm 20.7 16.3 15.7 73 3.0 S 33 39 18 21 1020.8 1020.8 0.6
27/10:30pm 21.0 17.4 15.3 70 3.4 S 28 37 15 20 1021.1 1021.1 0.6
27/10:00pm 20.9 18.4 15.2 70 3.4 S 22 30 12 16 1021.0 1021.0 0.6
27/09:30pm 21.0 17.8 15.3 70 3.4 S 26 33 14 18 1020.9 1020.9 0.6
27/09:00pm 20.9 17.3 15.2 70 3.4 S 28 35 15 19 1020.8 1020.8 0.6
27/08:30pm 20.6 18.6 15.4 72 3.1 S 20 32 11 17 1021.0 1021.0 0.6
27/08:00pm 20.4 16.9 15.6 74 2.8 S 28 35 15 19 1020.7 1020.7 0.6
27/07:30pm 20.7 16.7 17.5 82 2.0 SSE 35 48 19 26 1020.7 1020.7 0.6
27/07:00pm 21.0 16.4 18.0 83 1.9 SE 39 48 21 26 1020.8 1020.8 0.6
27/06:30pm 22.2 18.4 16.7 71 3.4 SSE 32 39 17 21 1020.4 1020.4 0.6
27/06:00pm 22.1 18.3 16.6 71 3.3 SSE 32 39 17 21 1020.3 1020.3 0.6
27/05:30pm 22.3 16.8 16.8 71 3.4 SSE 41 50 22 27 1020.2 1020.2 0.6
27/05:00pm 21.8 16.5 16.3 71 3.3 S 39 50 21 27 1020.3 1020.3 0.6
27/04:30pm 21.4 15.4 15.5 69 3.5 S 41 56 22 30 1020.1 1020.1 0.6
27/04:00pm 22.0 15.7 16.1 69 3.5 S 44 56 24 30 1019.9 1019.9 0.6
27/03:45pm 21.8 16.4 15.9 69 3.5 S 39 61 21 33 1019.9 1019.9 0.6
27/03:30pm 22.0 17.7 16.9 73 3.1 S 35 50 19 27 1019.9 1019.9 0.6

Other formats

Comma delimited format used in spreadsheet applications
http://www.bom.gov.au/fwo/IDQ60801/IDQ60801.94580.axf

JavaScript Object Notation format (JSON) in row-major order
http://www.bom.gov.au/fwo/IDQ60801/IDQ60801.94580.json

Data quality

Most of these data are generated automatically and are frequently updated. Quality checks on data are not normally performed. It is possible for incorrect values to appear. Refer to information at About Latest Weather Observations and please check the disclaimer before using these data.